Airfield :
LOGIN :

Register | Disclaimer

   EN    FR    IT 

 










Legend :    VFR   Marginal VFR   IFR   Intensive IFR   Very Intensive IFR
Visi :
Ceiling :
>= 8 km
>= 3000ft
5 to 8 km
1000 to 3000 ft
1500m to 5 km
500 to 1000 ft
800 to 1500m
200 to 500 ft
< 800m
< 200 ft
Symbols :   Thunderstorms  Fog  Heavy snow  Heavy precipitations  Wind > 20 kt
SIGMETs :     Misc.  Thunderstorms  Icing  Turbulence  Mountain Waves  Volcanic Ashes






- Airport Elevation : 1455 ft


ETIH - Hohenfels Army Air Field

CURRENT METAR :
  • 290600Z AUTO 10003KT 6000 HZ OVC004 02/M00 A2998 RMK AO2 SLP173 $

EXPIRED METARs :
  • 290457Z AUTO 11003KT 8000 HZ OVC005 02/M01 A2998 RMK AO2 DZE57 SLP173 $
  • 290431Z AUTO 11003KT 6000 -DZ OVC005 02/M01 A2997 RMK AO2 DZB16E26DZB31 SLP170 $
  • 290416Z AUTO 11003KT 8000 -DZ OVC005 02/M00 A2997 RMK AO2 DZB16 SLP170 $

Expired Forecast.



MET'MAP, your aeronautical weather chart ! - Copyright ORBIFLY December 2007 - Disclaimer

ORBIFLY MET'MAP TEAM :

Programming & Development : Alexandra Zaïnal
Original concept : Baudouin d'Aumeries
Technical & hardware support : Manuel Goepfert
Assistance : Marc-Olivier Méhu




SOURCES & CREDITS :

   NOAA